Ana Sayfa
METAR-TAF:

METAR-TAF

Havaalanları :

Winston Field

Snyder, Teksas, Amerika Birleşik Devletleri

Enlem: 32-41-36N, Boylam: 100-57-01W, yükseklik: 741 m

Güncel hava durumu gözlemi

Rapor saat 14:35 UTC de 25 dakika önce yapıldı.
Rüzgar güneydan 16 kt ve 23 kt'a kadar ani rüzgarlar
Sıcaklık 27°C
Nem 66%
Basınç 1016 hPa
Görüş mesafesi: 16.1 km
Açık gökyüzü

METAR: KSNK 181435Z AUTO 19016G23KT 10SM CLR 27/20 A3001 RMK AO2 T02670202

Saat: 10:00 (15:00 UTC)


TAF: eksik

4.000'den fazla havaalanı için hava durumu gözlemleri ve tahminleri (METAR ve TAF raporları).

Kullanılabilir istasyonlar harita üzerinde sarı ve kırmızı noktalarla gösterilir.

İstasyonun adını görmek için fareyi noktanın üzerinde gezdirin.

Sonrasında hava gözlem ve tahminlerini görmek için tıklayın.

Haritayı değiştirmek için: yaklaştırmak için siyah artı işaretli yeşil düğmeye ve uzaklaştırmak için de eksi işaretli düğmeye hızla tıklayın; bitişik haritalar için yeşil okları kullanın.


METAR-TAF: